Time;durP1;ratioP1;P1;durP2;ratioP2;P2;SDS_P1;SDS_P2;PMS_P1;PMS_P2;Temp;Humidity;BMP_temperature;BMP_pressure;BME280_temperature;BME280_humidity;BME280_pressure;Samples;Min_cycle;Max_cycle;Signal;HPM_P1;HPM_P2
2020/12/06 07:27:28;;;;;;;6.88;2.90;;;;;;;;;;5089417;27;20780;-54
2020/12/06 07:29:54;;;;;;;6.18;3.10;;;;;;;;;;5089772;28;20116;-52
2020/12/06 07:32:21;;;;;;;9.15;3.15;;;;;;;;;;5091989;28;20130;-51
2020/12/06 07:34:48;;;;;;;9.13;3.03;;;;;;;;;;5090340;28;20107;-52
2020/12/06 07:37:14;;;;;;;8.45;2.83;;;;;;;;;;5089479;28;20481;-51
2020/12/06 07:39:44;;;;;;;9.93;3.72;;;;;;;;;;5089441;28;20066;-52
2020/12/06 07:42:10;;;;;;;9.10;3.25;;;;;;;;;;5089423;28;20381;-52
2020/12/06 07:44:46;;;;;;;11.85;3.97;;;;;;;;;;5089749;28;20500;-51
2020/12/06 07:47:12;;;;;;;6.43;2.90;;;;;;;;;;5088786;28;20024;-55
2020/12/06 07:49:42;;;;;;;7.68;3.10;;;;;;;;;;5089451;28;20028;-51
2020/12/06 07:52:12;;;;;;;10.57;3.75;;;;;;;;;;5088715;28;20032;-55
2020/12/06 07:54:38;;;;;;;11.35;3.50;;;;;;;;;;5089338;28;20069;-52
2020/12/06 07:57:05;;;;;;;8.73;3.30;;;;;;;;;;5089326;28;20016;-53
2020/12/06 07:59:33;;;;;;;9.98;3.47;;;;;;;;;;5090200;28;20815;-51
2020/12/06 08:02:00;;;;;;;8.73;3.40;;;;;;;;;;5081997;28;20103;-55
2020/12/06 08:04:28;;;;;;;13.15;3.85;;;;;;;;;;5087732;28;20020;-51
2020/12/06 08:06:59;;;;;;;10.75;4.38;;;;;;;;;;5088813;28;20020;-51
2020/12/06 08:09:28;;;;;;;16.20;3.75;;;;;;;;;;5087677;28;20032;-61
2020/12/06 08:11:55;;;;;;;10.40;3.72;;;;;;;;;;5093409;28;20029;-62
2020/12/06 08:14:22;;;;;;;7.70;3.92;;;;;;;;;;5098566;28;20028;-62
2020/12/06 08:16:58;;;;;;;9.25;3.78;;;;;;;;;;5089226;28;20557;-61
2020/12/06 08:19:25;;;;;;;12.60;3.65;;;;;;;;;;5075465;28;20445;-61
2020/12/06 08:21:51;;;;;;;8.73;3.28;;;;;;;;;;5082038;28;20028;-61
2020/12/06 08:24:21;;;;;;;11.25;4.28;;;;;;;;;;5087861;28;20063;-61
2020/12/06 08:26:48;;;;;;;8.18;3.70;;;;;;;;;;5087677;28;20044;-60
2020/12/06 08:29:14;;;;;;;9.18;4.03;;;;;;;;;;5090597;28;20031;-60
2020/12/06 08:31:42;;;;;;;9.35;3.92;;;;;;;;;;5088597;28;20431;-60
2020/12/06 08:34:12;;;;;;;11.45;3.67;;;;;;;;;;5087504;28;20051;-59
2020/12/06 08:36:38;;;;;;;5.90;3.42;;;;;;;;;;5085849;28;20047;-60
2020/12/06 08:39:16;;;;;;;6.00;2.97;;;;;;;;;;5088044;28;20500;-61
2020/12/06 08:41:42;;;;;;;5.85;3.05;;;;;;;;;;5090263;28;20043;-61
2020/12/06 08:44:08;;;;;;;8.20;3.10;;;;;;;;;;5101623;28;20589;-61
2020/12/06 08:46:35;;;;;;;8.60;3.28;;;;;;;;;;5095666;28;20389;-61
2020/12/06 08:49:02;;;;;;;8.68;3.40;;;;;;;;;;5092053;28;20457;-60
2020/12/06 08:51:38;;;;;;;6.53;3.60;;;;;;;;;;5087299;28;20051;-60
2020/12/06 08:54:05;;;;;;;13.63;3.60;;;;;;;;;;5087870;28;20032;-61
2020/12/06 08:56:38;;;;;;;12.93;4.05;;;;;;;;;;5089304;28;20050;-61
2020/12/06 08:59:14;;;;;;;14.95;4.40;;;;;;;;;;5090898;28;20036;-60
2020/12/06 09:01:50;;;;;;;15.00;4.65;;;;;;;;;;5088657;28;20409;-60
2020/12/06 09:04:17;;;;;;;12.13;3.60;;;;;;;;;;5086072;28;20016;-60
2020/12/06 09:06:43;;;;;;;8.80;3.22;;;;;;;;;;5086924;28;20039;-60
2020/12/06 09:09:09;;;;;;;11.20;3.78;;;;;;;;;;5088420;28;20063;-63
2020/12/06 09:11:36;;;;;;;8.73;3.63;;;;;;;;;;5087755;28;20032;-60
2020/12/06 09:14:02;;;;;;;15.07;3.28;;;;;;;;;;5090186;28;20036;-61
2020/12/06 09:16:28;;;;;;;13.35;3.90;;;;;;;;;;5088136;28;20423;-60
2020/12/06 09:18:54;;;;;;;8.80;3.13;;;;;;;;;;5088399;28;20355;-60
2020/12/06 09:21:20;;;;;;;7.43;3.15;;;;;;;;;;5086919;28;20039;-61
2020/12/06 09:23:47;;;;;;;10.43;4.00;;;;;;;;;;5087074;28;20111;-60
2020/12/06 09:26:13;;;;;;;8.32;3.17;;;;;;;;;;5089275;28;20048;-60
2020/12/06 09:28:40;;;;;;;8.93;3.10;;;;;;;;;;5086491;28;20024;-61
2020/12/06 09:31:06;;;;;;;10.90;3.47;;;;;;;;;;5084680;28;20044;-60
2020/12/06 09:33:32;;;;;;;12.10;3.75;;;;;;;;;;5086814;28;20023;-60
2020/12/06 09:35:58;;;;;;;12.90;3.65;;;;;;;;;;5086626;28;20488;-60
2020/12/06 09:38:25;;;;;;;8.60;3.53;;;;;;;;;;5087993;28;20438;-60
2020/12/06 09:40:51;;;;;;;9.45;2.85;;;;;;;;;;5088735;28;20028;-59
2020/12/06 09:43:17;;;;;;;8.18;2.78;;;;;;;;;;5086797;28;20054;-62
2020/12/06 09:45:44;;;;;;;5.88;3.13;;;;;;;;;;5088813;28;20058;-59
2020/12/06 09:48:10;;;;;;;10.25;2.90;;;;;;;;;;5089574;28;20032;-59
2020/12/06 09:50:36;;;;;;;7.22;2.38;;;;;;;;;;5096131;28;20530;-62
2020/12/06 09:53:03;;;;;;;9.95;2.80;;;;;;;;;;5089466;28;20032;-62
2020/12/06 09:55:29;;;;;;;11.88;2.83;;;;;;;;;;5088864;28;20493;-62
2020/12/06 09:57:55;;;;;;;9.43;3.50;;;;;;;;;;5086634;28;20024;-62
2020/12/06 10:00:21;;;;;;;8.13;2.63;;;;;;;;;;5079229;28;20502;-61
2020/12/06 10:02:47;;;;;;;8.85;2.80;;;;;;;;;;5090759;28;20046;-62
2020/12/06 10:05:14;;;;;;;5.93;2.40;;;;;;;;;;5089356;28;20078;-61
2020/12/06 10:07:40;;;;;;;9.25;2.33;;;;;;;;;;5087610;28;20484;-60
2020/12/06 10:10:06;;;;;;;6.55;2.55;;;;;;;;;;5086651;28;20031;-61
2020/12/06 10:12:33;;;;;;;6.90;2.53;;;;;;;;;;5086041;28;20425;-60
2020/12/06 10:15:00;;;;;;;7.85;2.90;;;;;;;;;;5085967;28;20032;-60
2020/12/06 10:17:26;;;;;;;7.22;2.10;;;;;;;;;;5086609;28;20051;-61
2020/12/06 10:19:52;;;;;;;10.70;2.63;;;;;;;;;;5088095;28;20444;-61
2020/12/06 10:22:19;;;;;;;7.63;3.08;;;;;;;;;;5085685;28;20020;-60
2020/12/06 10:24:45;;;;;;;6.05;2.80;;;;;;;;;;5086232;28;20052;-61
2020/12/06 10:27:11;;;;;;;7.82;2.63;;;;;;;;;;5087286;28;20089;-60
2020/12/06 10:29:38;;;;;;;10.18;2.83;;;;;;;;;;5086514;28;20433;-60
2020/12/06 10:32:04;;;;;;;10.10;2.88;;;;;;;;;;5089731;28;20079;-60
2020/12/06 10:34:30;;;;;;;6.50;2.88;;;;;;;;;;5082503;28;20020;-52
2020/12/06 10:36:58;;;;;;;11.25;3.35;;;;;;;;;;5085445;28;20027;-52
2020/12/06 10:39:25;;;;;;;5.80;2.53;;;;;;;;;;5089821;28;20069;-51
2020/12/06 10:41:51;;;;;;;9.00;2.85;;;;;;;;;;5090752;28;20028;-53
2020/12/06 10:44:18;;;;;;;10.10;3.55;;;;;;;;;;5091457;28;20028;-54
2020/12/06 10:46:44;;;;;;;10.73;2.95;;;;;;;;;;5091083;28;20036;-54
2020/12/06 10:49:10;;;;;;;7.53;2.92;;;;;;;;;;5089021;28;20401;-55
2020/12/06 10:51:40;;;;;;;6.07;2.30;;;;;;;;;;5090112;28;20130;-53
2020/12/06 10:54:06;;;;;;;5.63;2.65;;;;;;;;;;5090731;28;20024;-53
2020/12/06 10:56:33;;;;;;;9.43;2.60;;;;;;;;;;5090432;28;20138;-55
2020/12/06 10:58:59;;;;;;;8.02;2.35;;;;;;;;;;5092417;28;20506;-55
2020/12/06 11:01:29;;;;;;;5.35;2.10;;;;;;;;;;5090579;28;20036;-55
2020/12/06 11:03:56;;;;;;;7.13;2.00;;;;;;;;;;5087841;28;20024;-55
2020/12/06 11:06:23;;;;;;;6.32;2.35;;;;;;;;;;5090931;28;20024;-54
2020/12/06 11:08:49;;;;;;;6.03;2.25;;;;;;;;;;5089507;28;20081;-57
2020/12/06 11:11:16;;;;;;;7.15;2.28;;;;;;;;;;5089043;28;20043;-52
2020/12/06 11:13:42;;;;;;;5.60;2.13;;;;;;;;;;5091414;28;20946;-54
2020/12/06 11:16:09;;;;;;;6.55;2.05;;;;;;;;;;5089029;28;20016;-54
2020/12/06 11:18:35;;;;;;;7.75;2.00;;;;;;;;;;5089083;28;20019;-55
2020/12/06 11:21:01;;;;;;;4.43;1.80;;;;;;;;;;5089058;28;20166;-56
2020/12/06 11:23:28;;;;;;;6.57;2.42;;;;;;;;;;5090794;28;20035;-55
2020/12/06 11:25:54;;;;;;;9.98;1.80;;;;;;;;;;5091154;28;20048;-53
2020/12/06 11:28:21;;;;;;;3.42;1.58;;;;;;;;;;5089007;28;20031;-56
2020/12/06 11:30:47;;;;;;;5.38;2.30;;;;;;;;;;5090470;28;20016;-55
2020/12/06 11:33:13;;;;;;;6.88;1.90;;;;;;;;;;5089000;28;20447;-52
2020/12/06 11:35:40;;;;;;;14.40;2.65;;;;;;;;;;5073439;28;20016;-52
2020/12/06 11:38:06;;;;;;;3.92;1.85;;;;;;;;;;5088735;28;20032;-56
2020/12/06 11:40:32;;;;;;;8.85;2.28;;;;;;;;;;5088292;28;20712;-54
2020/12/06 11:42:58;;;;;;;5.53;2.00;;;;;;;;;;5090223;28;20054;-52
2020/12/06 11:45:24;;;;;;;9.30;2.70;;;;;;;;;;5090668;28;20032;-52
2020/12/06 11:47:50;;;;;;;7.30;2.15;;;;;;;;;;5088550;28;20064;-52
2020/12/06 11:50:17;;;;;;;3.42;1.80;;;;;;;;;;5090677;28;20031;-53
2020/12/06 11:52:43;;;;;;;5.72;2.05;;;;;;;;;;5091749;28;20493;-54
2020/12/06 11:55:10;;;;;;;7.10;2.28;;;;;;;;;;5089699;28;20070;-54
2020/12/06 11:57:37;;;;;;;7.35;1.85;;;;;;;;;;5088578;28;20032;-56
2020/12/06 12:00:06;;;;;;;3.72;1.77;;;;;;;;;;5088547;28;20012;-56
2020/12/06 12:02:38;;;;;;;3.28;1.83;;;;;;;;;;5090137;28;20040;-52
2020/12/06 12:05:04;;;;;;;5.90;1.92;;;;;;;;;;5092178;28;20016;-55
2020/12/06 12:07:31;;;;;;;4.65;1.98;;;;;;;;;;5089481;28;20435;-53
2020/12/06 12:09:57;;;;;;;6.53;2.30;;;;;;;;;;5089460;28;20028;-55
2020/12/06 12:12:23;;;;;;;6.68;1.90;;;;;;;;;;5089656;28;20032;-52
2020/12/06 12:14:50;;;;;;;3.60;1.60;;;;;;;;;;5089330;28;20055;-51
2020/12/06 12:17:16;;;;;;;5.25;1.80;;;;;;;;;;5085441;28;20016;-53
2020/12/06 12:19:42;;;;;;;5.15;1.73;;;;;;;;;;5084323;28;20023;-55
2020/12/06 12:22:08;;;;;;;6.57;1.40;;;;;;;;;;5079880;28;20048;-56
2020/12/06 12:24:35;;;;;;;5.20;2.03;;;;;;;;;;5078852;28;20035;-52
2020/12/06 12:27:01;;;;;;;5.30;1.90;;;;;;;;;;5078559;28;20788;-53
2020/12/06 12:29:28;;;;;;;6.97;1.80;;;;;;;;;;5081369;28;20111;-53
2020/12/06 12:31:54;;;;;;;6.88;2.28;;;;;;;;;;5073385;28;20040;-54
2020/12/06 12:34:21;;;;;;;3.50;2.10;;;;;;;;;;5078248;28;20378;-55
2020/12/06 12:36:47;;;;;;;4.50;2.47;;;;;;;;;;5082663;28;20434;-58
2020/12/06 12:39:14;;;;;;;7.35;2.50;;;;;;;;;;5082301;28;20526;-55
2020/12/06 12:41:40;;;;;;;6.68;2.28;;;;;;;;;;5082065;28;20028;-55
2020/12/06 12:44:07;;;;;;;9.27;3.05;;;;;;;;;;5087166;28;20027;-51
2020/12/06 12:46:34;;;;;;;7.88;2.58;;;;;;;;;;5087534;28;20016;-55
2020/12/06 12:49:01;;;;;;;5.38;2.65;;;;;;;;;;5086924;28;20039;-54
2020/12/06 12:51:27;;;;;;;11.57;2.67;;;;;;;;;;5087147;28;20042;-52
2020/12/06 12:53:55;;;;;;;10.15;2.78;;;;;;;;;;5087281;28;20657;-52
2020/12/06 12:56:21;;;;;;;6.40;2.55;;;;;;;;;;5089499;28;20039;-52
2020/12/06 12:58:47;;;;;;;9.30;2.95;;;;;;;;;;5088547;28;20477;-55
2020/12/06 13:01:13;;;;;;;6.35;3.22;;;;;;;;;;5086613;28;20032;-55
2020/12/06 13:03:39;;;;;;;8.40;3.00;;;;;;;;;;5081943;28;20058;-53
2020/12/06 13:06:05;;;;;;;10.55;3.17;;;;;;;;;;5070577;28;20447;-54
2020/12/06 13:08:31;;;;;;;8.32;3.35;;;;;;;;;;5069794;28;20481;-51
2020/12/06 13:10:57;;;;;;;6.00;3.20;;;;;;;;;;5069311;28;20058;-58
2020/12/06 13:13:25;;;;;;;8.90;3.05;;;;;;;;;;5070942;28;20123;-61
2020/12/06 13:15:51;;;;;;;7.03;2.78;;;;;;;;;;5069652;28;20016;-53
2020/12/06 13:18:17;;;;;;;6.03;2.38;;;;;;;;;;5072510;28;20108;-54
2020/12/06 13:20:44;;;;;;;4.97;2.58;;;;;;;;;;5070394;28;20024;-56
2020/12/06 13:23:10;;;;;;;7.35;2.60;;;;;;;;;;5076237;28;20041;-55
2020/12/06 13:25:36;;;;;;;9.55;2.70;;;;;;;;;;5084286;28;20111;-52
2020/12/06 13:28:03;;;;;;;5.05;2.90;;;;;;;;;;5085462;28;20031;-51
2020/12/06 13:30:29;;;;;;;5.93;2.45;;;;;;;;;;5085638;28;20636;-51
2020/12/06 13:32:55;;;;;;;8.38;2.60;;;;;;;;;;5087675;28;20531;-54
2020/12/06 13:35:21;;;;;;;5.05;2.22;;;;;;;;;;5096581;28;20051;-56
2020/12/06 13:37:47;;;;;;;9.82;2.33;;;;;;;;;;5100841;28;20030;-51
2020/12/06 13:40:13;;;;;;;8.32;2.20;;;;;;;;;;5088004;28;20056;-53
2020/12/06 13:42:39;;;;;;;7.18;2.38;;;;;;;;;;5086701;28;20106;-51
2020/12/06 13:45:05;;;;;;;7.80;2.42;;;;;;;;;;5086776;28;20052;-50
2020/12/06 13:47:32;;;;;;;7.10;2.50;;;;;;;;;;5087875;28;20048;-51
2020/12/06 13:49:58;;;;;;;5.88;2.70;;;;;;;;;;5088796;28;20031;-54
2020/12/06 13:52:24;;;;;;;6.43;3.10;;;;;;;;;;5086082;28;20144;-54
2020/12/06 13:54:50;;;;;;;5.32;2.38;;;;;;;;;;5080211;28;20080;-53
2020/12/06 13:57:16;;;;;;;8.13;1.98;;;;;;;;;;5086440;28;20036;-55
2020/12/06 13:59:42;;;;;;;5.47;2.10;;;;;;;;;;5086657;28;20396;-53
2020/12/06 14:02:08;;;;;;;10.20;2.70;;;;;;;;;;5085895;28;20535;-56
2020/12/06 14:04:34;;;;;;;9.75;2.42;;;;;;;;;;5088008;28;20119;-55
2020/12/06 14:07:00;;;;;;;10.60;2.10;;;;;;;;;;5086062;28;20507;-53
2020/12/06 14:09:27;;;;;;;4.50;2.42;;;;;;;;;;5086327;28;20026;-54
2020/12/06 14:11:56;;;;;;;9.25;2.20;;;;;;;;;;5086443;28;20063;-54
2020/12/06 14:14:23;;;;;;;110.10;63.85;;;;;;;;;;5092611;28;20107;-52
2020/12/06 14:16:53;;;;;;;21.92;13.10;;;;;;;;;;5092130;28;20207;-58
2020/12/06 14:19:19;;;;;;;30.17;19.60;;;;;;;;;;5090263;28;20089;-51
2020/12/06 14:21:45;;;;;;;40.92;20.88;;;;;;;;;;5090260;28;20016;-53
2020/12/06 14:24:12;;;;;;;7.32;3.47;;;;;;;;;;5095944;28;20027;-55
2020/12/06 14:26:38;;;;;;;9.00;2.80;;;;;;;;;;5090296;28;20413;-55
2020/12/06 14:29:04;;;;;;;6.60;2.28;;;;;;;;;;5099116;28;20054;-53
2020/12/06 14:31:30;;;;;;;11.23;3.40;;;;;;;;;;5086663;28;20115;-55
2020/12/06 14:33:56;;;;;;;7.43;2.30;;;;;;;;;;5087337;28;20016;-53
2020/12/06 14:36:23;;;;;;;6.53;2.78;;;;;;;;;;5088886;28;20093;-51
2020/12/06 14:38:50;;;;;;;5.30;2.80;;;;;;;;;;5088234;28;20032;-52
2020/12/06 14:41:17;;;;;;;6.18;2.95;;;;;;;;;;5090742;28;20500;-55
2020/12/06 14:43:43;;;;;;;7.47;3.13;;;;;;;;;;5086557;28;20077;-54
2020/12/06 14:46:10;;;;;;;7.55;3.10;;;;;;;;;;5087392;28;20036;-55
2020/12/06 14:48:36;;;;;;;8.68;3.50;;;;;;;;;;5086815;28;20036;-52
2020/12/06 14:51:02;;;;;;;10.38;2.70;;;;;;;;;;5086072;28;20036;-52
2020/12/06 14:53:29;;;;;;;5.78;2.55;;;;;;;;;;5080001;28;20025;-51
2020/12/06 14:55:55;;;;;;;7.47;2.13;;;;;;;;;;5087678;28;20526;-54
2020/12/06 14:58:21;;;;;;;6.15;2.00;;;;;;;;;;5085855;28;20056;-51
2020/12/06 15:00:48;;;;;;;8.88;2.45;;;;;;;;;;5088355;28;20062;-55
2020/12/06 15:03:14;;;;;;;9.85;2.03;;;;;;;;;;5087308;28;20032;-53
2020/12/06 15:05:41;;;;;;;7.55;2.13;;;;;;;;;;5071198;28;20130;-53
2020/12/06 15:08:07;;;;;;;4.70;2.08;;;;;;;;;;5090360;28;20409;-53
2020/12/06 15:10:33;;;;;;;6.97;2.13;;;;;;;;;;5075771;28;20028;-56
2020/12/06 15:12:59;;;;;;;4.00;2.45;;;;;;;;;;5081766;28;20038;-52
2020/12/06 15:15:25;;;;;;;10.07;2.55;;;;;;;;;;5087016;28;20539;-52
2020/12/06 15:17:51;;;;;;;8.00;2.58;;;;;;;;;;5081527;28;20606;-51
2020/12/06 15:20:17;;;;;;;8.65;2.03;;;;;;;;;;5083908;28;20039;-51
2020/12/06 15:22:43;;;;;;;5.90;2.00;;;;;;;;;;5086278;28;20028;-54
2020/12/06 15:25:10;;;;;;;8.98;2.25;;;;;;;;;;5085975;28;20055;-56
2020/12/06 15:27:36;;;;;;;5.03;1.95;;;;;;;;;;5086879;28;20055;-51
2020/12/06 15:30:02;;;;;;;11.68;2.85;;;;;;;;;;5086789;28;20473;-52
2020/12/06 15:32:28;;;;;;;8.90;2.90;;;;;;;;;;5088630;28;20040;-51
2020/12/06 15:34:54;;;;;;;5.18;2.45;;;;;;;;;;5088063;28;20074;-54
2020/12/06 15:37:21;;;;;;;12.95;2.50;;;;;;;;;;5086780;28;20230;-55
2020/12/06 15:39:47;;;;;;;7.60;2.78;;;;;;;;;;5086553;28;20023;-51
2020/12/06 15:42:13;;;;;;;6.68;2.83;;;;;;;;;;5086391;28;20063;-54
2020/12/06 15:44:39;;;;;;;6.50;2.95;;;;;;;;;;5087862;28;20021;-53
2020/12/06 15:47:05;;;;;;;3.83;2.42;;;;;;;;;;5090069;28;20028;-53
2020/12/06 15:49:31;;;;;;;8.05;3.97;;;;;;;;;;5087133;28;20032;-51
2020/12/06 15:51:57;;;;;;;8.68;3.65;;;;;;;;;;5087569;28;20050;-53
2020/12/06 15:54:24;;;;;;;7.07;3.40;;;;;;;;;;5087362;28;20104;-52
2020/12/06 15:56:50;;;;;;;8.30;3.25;;;;;;;;;;5087481;28;20020;-52
2020/12/06 15:59:16;;;;;;;11.23;4.45;;;;;;;;;;5089292;28;20115;-53
2020/12/06 16:01:42;;;;;;;7.07;3.08;;;;;;;;;;5087886;28;20119;-53
2020/12/06 16:04:08;;;;;;;10.85;3.85;;;;;;;;;;5079809;28;20028;-56
2020/12/06 16:06:35;;;;;;;175.88;76.40;;;;;;;;;;5082801;28;20046;-55
2020/12/06 16:09:01;;;;;;;45.60;22.80;;;;;;;;;;5077969;28;20030;-55
2020/12/06 16:11:27;;;;;;;16.17;6.85;;;;;;;;;;5070434;28;20036;-54
2020/12/06 16:13:53;;;;;;;6.70;2.70;;;;;;;;;;5074629;28;20024;-54
2020/12/06 16:16:19;;;;;;;9.40;3.70;;;;;;;;;;5081113;28;20024;-52
2020/12/06 16:18:45;;;;;;;11.70;4.05;;;;;;;;;;5078766;28;20111;-53
2020/12/06 16:21:12;;;;;;;21.90;10.07;;;;;;;;;;5079811;28;20481;-52
2020/12/06 16:23:39;;;;;;;26.55;11.75;;;;;;;;;;5083790;28;20062;-55
2020/12/06 16:26:06;;;;;;;9.82;3.60;;;;;;;;;;5083340;28;20448;-54
2020/12/06 16:28:33;;;;;;;24.38;12.40;;;;;;;;;;5074766;28;20111;-53
2020/12/06 16:30:59;;;;;;;19.55;9.38;;;;;;;;;;5074031;28;20480;-54
2020/12/06 16:33:25;;;;;;;10.90;3.60;;;;;;;;;;5089426;28;20524;-52
2020/12/06 16:35:52;;;;;;;7.05;3.28;;;;;;;;;;5073403;28;20539;-51
2020/12/06 16:38:18;;;;;;;6.15;3.33;;;;;;;;;;5071774;28;20035;-52
2020/12/06 16:40:45;;;;;;;9.15;3.80;;;;;;;;;;5074103;28;20453;-52
2020/12/06 16:43:11;;;;;;;8.32;3.38;;;;;;;;;;5074363;28;20028;-53
2020/12/06 16:45:37;;;;;;;6.97;3.08;;;;;;;;;;5073953;28;20046;-54
2020/12/06 16:48:04;;;;;;;7.57;3.05;;;;;;;;;;5092408;28;20082;-52
2020/12/06 16:50:30;;;;;;;8.98;3.28;;;;;;;;;;5082739;28;20036;-52
2020/12/06 16:52:56;;;;;;;9.40;4.78;;;;;;;;;;5079449;28;20840;-54
2020/12/06 16:55:22;;;;;;;11.85;3.65;;;;;;;;;;5076796;28;20062;-51
2020/12/06 16:57:48;;;;;;;12.80;6.85;;;;;;;;;;5079919;28;20035;-53
2020/12/06 17:00:15;;;;;;;8.38;4.88;;;;;;;;;;5078836;28;20027;-55
2020/12/06 17:02:41;;;;;;;8.90;3.90;;;;;;;;;;5074572;28;20028;-52
2020/12/06 17:05:08;;;;;;;9.63;4.15;;;;;;;;;;5083455;28;20404;-52
2020/12/06 17:07:34;;;;;;;10.50;4.18;;;;;;;;;;5084519;28;20028;-55
2020/12/06 17:10:01;;;;;;;13.02;5.05;;;;;;;;;;5085118;28;20034;-54
2020/12/06 17:12:28;;;;;;;10.57;4.80;;;;;;;;;;5086431;28;20036;-54
2020/12/06 17:14:54;;;;;;;10.77;4.97;;;;;;;;;;5087238;28;20023;-55
2020/12/06 17:17:20;;;;;;;9.65;5.43;;;;;;;;;;5089879;28;20077;-53
2020/12/06 17:19:46;;;;;;;12.15;4.95;;;;;;;;;;5088803;28;20249;-50
2020/12/06 17:22:12;;;;;;;10.77;5.13;;;;;;;;;;5086025;28;20036;-52
2020/12/06 17:24:39;;;;;;;12.98;5.72;;;;;;;;;;5083228;28;20440;-51
2020/12/06 17:27:07;;;;;;;35.38;16.42;;;;;;;;;;5085972;28;20048;-56
2020/12/06 17:29:34;;;;;;;47.15;23.17;;;;;;;;;;5088824;28;20039;-52
2020/12/06 17:32:00;;;;;;;28.10;16.27;;;;;;;;;;5089208;28;20050;-55
2020/12/06 17:34:26;;;;;;;20.15;10.95;;;;;;;;;;5087118;28;20081;-51
2020/12/06 17:36:52;;;;;;;12.98;7.38;;;;;;;;;;5090773;28;20033;-55
2020/12/06 17:39:18;;;;;;;17.98;8.30;;;;;;;;;;5087855;28;20437;-54
2020/12/06 17:41:45;;;;;;;9.60;6.43;;;;;;;;;;5087918;28;20024;-54
2020/12/06 17:44:11;;;;;;;11.98;6.55;;;;;;;;;;5088631;28;20044;-53
2020/12/06 17:46:38;;;;;;;15.52;7.95;;;;;;;;;;5088070;28;20404;-55
2020/12/06 17:49:05;;;;;;;14.68;7.30;;;;;;;;;;5087450;28;20024;-54
2020/12/06 17:51:31;;;;;;;18.85;7.85;;;;;;;;;;5086859;28;20036;-51
2020/12/06 17:53:57;;;;;;;12.80;7.82;;;;;;;;;;5087671;28;20051;-54
2020/12/06 17:56:23;;;;;;;13.65;7.18;;;;;;;;;;5089265;28;20062;-57
2020/12/06 17:58:50;;;;;;;15.52;8.57;;;;;;;;;;5088203;28;20043;-55
2020/12/06 18:01:16;;;;;;;14.73;8.90;;;;;;;;;;5086406;28;20071;-59
2020/12/06 18:03:42;;;;;;;14.77;8.13;;;;;;;;;;5086916;28;20026;-53
2020/12/06 18:06:09;;;;;;;15.95;7.80;;;;;;;;;;5084302;28;20034;-56
2020/12/06 18:08:35;;;;;;;15.57;7.82;;;;;;;;;;5080766;28;20060;-51
2020/12/06 18:11:01;;;;;;;12.73;7.80;;;;;;;;;;5087266;28;20050;-51
2020/12/06 18:13:32;;;;;;;14.23;8.20;;;;;;;;;;5083335;28;20032;-50
2020/12/06 18:15:58;;;;;;;15.32;7.13;;;;;;;;;;5083404;28;20452;-54
2020/12/06 18:18:25;;;;;;;8.23;6.82;;;;;;;;;;5083982;28;20020;-50
2020/12/06 18:20:52;;;;;;;16.13;7.85;;;;;;;;;;5086126;28;20021;-51
2020/12/06 18:23:18;;;;;;;11.32;7.63;;;;;;;;;;5076748;28;20579;-61
2020/12/06 18:25:44;;;;;;;15.48;8.25;;;;;;;;;;5083367;28;20044;-60
2020/12/06 18:28:10;;;;;;;37.50;19.23;;;;;;;;;;5085325;28;20500;-60
2020/12/06 18:30:36;;;;;;;62.45;30.75;;;;;;;;;;5078021;28;20036;-60
2020/12/06 18:33:04;;;;;;;60.40;27.80;;;;;;;;;;5086670;28;20025;-60
2020/12/06 18:35:31;;;;;;;37.80;20.02;;;;;;;;;;5085344;28;20024;-60
2020/12/06 18:37:57;;;;;;;51.22;25.23;;;;;;;;;;5088697;28;20016;-61
2020/12/06 18:40:23;;;;;;;28.23;16.30;;;;;;;;;;5086412;28;20078;-60
2020/12/06 18:42:49;;;;;;;26.95;15.73;;;;;;;;;;5086363;28;20024;-60
2020/12/06 18:45:16;;;;;;;29.63;16.20;;;;;;;;;;5086529;28;20028;-60
2020/12/06 18:47:43;;;;;;;24.98;11.65;;;;;;;;;;5071092;28;20035;-60
2020/12/06 18:50:09;;;;;;;29.45;15.75;;;;;;;;;;5089685;28;20051;-59
2020/12/06 18:52:37;;;;;;;36.50;19.15;;;;;;;;;;5078543;28;20166;-59
2020/12/06 18:55:04;;;;;;;32.72;17.27;;;;;;;;;;5081068;28;20241;-59
2020/12/06 18:57:30;;;;;;;30.00;17.45;;;;;;;;;;5086548;28;20020;-60
2020/12/06 18:59:57;;;;;;;29.80;16.90;;;;;;;;;;5090221;28;20021;-60
2020/12/06 19:02:23;;;;;;;28.90;18.15;;;;;;;;;;5092509;28;20046;-59
2020/12/06 19:04:49;;;;;;;28.70;19.10;;;;;;;;;;5091055;28;20121;-59
2020/12/06 19:07:16;;;;;;;26.38;17.90;;;;;;;;;;5090145;28;20020;-59
2020/12/06 19:09:42;;;;;;;27.38;18.45;;;;;;;;;;5089573;28;20040;-60
2020/12/06 19:12:09;;;;;;;31.45;21.40;;;;;;;;;;5091727;28;20115;-60
2020/12/06 19:14:35;;;;;;;33.38;23.23;;;;;;;;;;5091296;28;20490;-58
2020/12/06 19:17:01;;;;;;;38.53;23.77;;;;;;;;;;5092054;28;20052;-60
2020/12/06 19:19:27;;;;;;;44.72;26.92;;;;;;;;;;5081607;28;20024;-60
2020/12/06 19:21:53;;;;;;;52.42;35.25;;;;;;;;;;5084615;28;20059;-60
2020/12/06 19:24:19;;;;;;;38.13;23.25;;;;;;;;;;5089569;28;20032;-60
2020/12/06 19:26:50;;;;;;;43.95;30.63;;;;;;;;;;5087262;28;20048;-60
2020/12/06 19:29:17;;;;;;;59.17;40.42;;;;;;;;;;5090690;28;20032;-57
2020/12/06 19:31:45;;;;;;;59.03;43.33;;;;;;;;;;5090271;28;20064;-61
2020/12/06 19:34:12;;;;;;;65.47;44.97;;;;;;;;;;5089393;28;20501;-55
2020/12/06 19:36:38;;;;;;;71.90;52.40;;;;;;;;;;5089643;28;20080;-55
2020/12/06 19:39:04;;;;;;;76.10;51.38;;;;;;;;;;5089288;28;20126;-55
2020/12/06 19:41:35;;;;;;;74.13;52.42;;;;;;;;;;5091367;28;20020;-54
2020/12/06 19:44:03;;;;;;;65.57;47.95;;;;;;;;;;5088559;28;20052;-54
2020/12/06 19:46:29;;;;;;;64.35;44.78;;;;;;;;;;5082162;28;20097;-52
2020/12/06 19:48:55;;;;;;;74.45;48.33;;;;;;;;;;5082050;28;20107;-52
2020/12/06 19:51:23;;;;;;;75.93;51.65;;;;;;;;;;5087861;28;20050;-52
2020/12/06 19:53:50;;;;;;;83.30;53.53;;;;;;;;;;5087201;28;20177;-51
2020/12/06 19:56:17;;;;;;;85.80;53.10;;;;;;;;;;5084018;28;20111;-53
2020/12/06 19:58:43;;;;;;;126.57;72.50;;;;;;;;;;5086103;28;20110;-54
2020/12/06 20:01:10;;;;;;;128.40;71.25;;;;;;;;;;5088598;28;20412;-53
2020/12/06 20:03:37;;;;;;;115.85;68.47;;;;;;;;;;5088247;28;20042;-52
2020/12/06 20:06:04;;;;;;;101.57;64.18;;;;;;;;;;5085397;28;20149;-52
2020/12/06 20:08:30;;;;;;;63.90;44.72;;;;;;;;;;5081937;28;20034;-54
2020/12/06 20:10:57;;;;;;;64.15;39.22;;;;;;;;;;5087387;28;20032;-52
2020/12/06 20:13:24;;;;;;;67.07;45.05;;;;;;;;;;5086715;28;20043;-54
2020/12/06 20:15:50;;;;;;;62.90;41.50;;;;;;;;;;5085389;28;20034;-56
2020/12/06 20:18:16;;;;;;;64.35;42.75;;;;;;;;;;5084016;28;20032;-55
2020/12/06 20:20:43;;;;;;;68.15;44.08;;;;;;;;;;5080597;28;20104;-58
2020/12/06 20:23:10;;;;;;;66.63;43.97;;;;;;;;;;5082456;28;20752;-56
2020/12/06 20:25:37;;;;;;;66.30;43.70;;;;;;;;;;5084822;28;20059;-53
2020/12/06 20:28:04;;;;;;;125.47;76.35;;;;;;;;;;5084420;28;20028;-54
2020/12/06 20:30:32;;;;;;;204.02;121.70;;;;;;;;;;5083145;28;20473;-52
2020/12/06 20:32:59;;;;;;;182.90;106.18;;;;;;;;;;5082509;28;20032;-51
2020/12/06 20:35:27;;;;;;;88.65;55.97;;;;;;;;;;5083397;28;20020;-52
2020/12/06 20:37:54;;;;;;;93.25;60.03;;;;;;;;;;5083877;28;20115;-55
2020/12/06 20:40:20;;;;;;;92.65;60.45;;;;;;;;;;5084663;28;20440;-53
2020/12/06 20:42:46;;;;;;;89.80;58.72;;;;;;;;;;5085252;28;20107;-51
2020/12/06 20:45:13;;;;;;;99.25;61.80;;;;;;;;;;5081466;28;20028;-54
2020/12/06 20:47:39;;;;;;;98.45;62.38;;;;;;;;;;5082247;28;20129;-52
2020/12/06 20:50:06;;;;;;;90.03;59.80;;;;;;;;;;5084220;28;20028;-53
2020/12/06 20:52:32;;;;;;;92.47;55.70;;;;;;;;;;5082929;28;20082;-52
2020/12/06 20:54:58;;;;;;;100.18;65.90;;;;;;;;;;5085718;28;20067;-53
2020/12/06 20:57:24;;;;;;;91.10;60.55;;;;;;;;;;5083139;28;20032;-54
2020/12/06 20:59:51;;;;;;;84.00;53.83;;;;;;;;;;5081619;28;20020;-52
2020/12/06 21:02:17;;;;;;;79.13;52.67;;;;;;;;;;5078731;28;20064;-51
2020/12/06 21:04:43;;;;;;;84.95;54.95;;;;;;;;;;5088679;28;20051;-52
2020/12/06 21:07:09;;;;;;;96.45;66.78;;;;;;;;;;5087737;28;20056;-51
2020/12/06 21:09:35;;;;;;;91.07;63.50;;;;;;;;;;5087775;28;20016;-51
2020/12/06 21:12:01;;;;;;;108.38;78.57;;;;;;;;;;5087804;28;20037;-51
2020/12/06 21:14:27;;;;;;;106.55;74.13;;;;;;;;;;5089963;28;20027;-54
2020/12/06 21:16:55;;;;;;;98.43;69.72;;;;;;;;;;5089247;28;20039;-54
2020/12/06 21:19:21;;;;;;;111.05;79.07;;;;;;;;;;5088090;28;20020;-57
2020/12/06 21:21:47;;;;;;;111.78;76.88;;;;;;;;;;5087427;28;20042;-52
2020/12/06 21:24:13;;;;;;;105.07;78.75;;;;;;;;;;5088224;28;20019;-55
2020/12/06 21:26:40;;;;;;;105.55;79.22;;;;;;;;;;5088576;28;20071;-51
2020/12/06 21:29:06;;;;;;;117.53;80.78;;;;;;;;;;5090441;28;20066;-58
